createdAt,value
2022-12-04T00:00:32.648Z,96105.22
2022-12-04T00:02:59.474Z,96104.91
2022-12-04T00:05:26.279Z,96100.84
2022-12-04T00:07:53.117Z,96103.31
2022-12-04T00:10:20.061Z,96112.00
2022-12-04T00:12:46.866Z,96108.13
2022-12-04T00:15:25.197Z,96107.34
2022-12-04T00:17:52.899Z,96095.78
2022-12-04T00:20:19.895Z,96108.44
2022-12-04T00:22:46.951Z,96098.41
2022-12-04T00:25:13.749Z,96093.78
2022-12-04T00:27:40.706Z,96093.38
2022-12-04T00:30:08.414Z,96107.19
2022-12-04T00:32:35.405Z,96105.22
2022-12-04T00:35:02.299Z,96114.94
2022-12-04T00:37:29.238Z,96105.88
2022-12-04T00:39:56.221Z,96112.06
2022-12-04T00:42:23.298Z,96106.19
2022-12-04T00:44:50.169Z,96119.09
2022-12-04T00:47:16.944Z,96100.66
2022-12-04T00:49:43.806Z,96099.34
2022-12-04T00:52:10.628Z,96098.72
2022-12-04T00:54:37.428Z,96103.75
2022-12-04T00:57:04.346Z,96100.94
2022-12-04T00:59:31.160Z,96087.38
2022-12-04T01:01:57.969Z,96095.03
2022-12-04T01:04:24.784Z,96114.75
2022-12-04T01:06:51.676Z,96119.19
2022-12-04T01:09:18.884Z,96114.56
2022-12-04T01:11:46.062Z,96107.16
2022-12-04T01:14:12.887Z,96111.38
2022-12-04T01:16:40.609Z,96107.69
2022-12-04T01:19:11.295Z,96111.72
2022-12-04T01:21:39.060Z,96113.63
2022-12-04T01:24:06.589Z,96115.53
2022-12-04T01:26:33.577Z,96116.38
2022-12-04T01:29:00.616Z,96124.38
2022-12-04T01:31:27.633Z,96123.13
2022-12-04T01:33:54.545Z,96117.63
2022-12-04T01:36:25.818Z,96108.69
2022-12-04T01:38:52.818Z,96105.94
2022-12-04T01:41:27.611Z,96105.91
2022-12-04T01:44:15.875Z,96103.00
2022-12-04T01:46:45.977Z,96103.63
2022-12-04T01:49:38.387Z,96104.97
2022-12-04T01:52:21.839Z,96103.47
2022-12-04T01:54:59.380Z,96093.25
2022-12-04T01:57:31.445Z,96088.53
2022-12-04T02:00:09.953Z,96096.50
2022-12-04T02:02:43.634Z,96102.53
2022-12-04T02:05:21.820Z,96108.84
2022-12-04T02:07:52.045Z,96103.97
2022-12-04T02:10:24.398Z,96096.84
2022-12-04T02:13:09.538Z,96095.38
2022-12-04T02:16:23.302Z,96082.84
2022-12-04T02:19:00.725Z,96084.31
2022-12-04T02:21:37.919Z,96075.53
2022-12-04T02:24:37.200Z,96074.41
2022-12-04T02:27:24.856Z,96063.34
2022-12-04T02:29:59.984Z,96048.88
2022-12-04T02:32:50.579Z,96046.28
2022-12-04T02:35:40.311Z,96055.88
2022-12-04T02:38:18.666Z,96058.16
2022-12-04T02:41:03.276Z,96064.78
2022-12-04T02:43:37.729Z,96070.66
2022-12-04T02:46:14.071Z,96058.63
2022-12-04T02:48:43.219Z,96054.91
2022-12-04T02:51:14.929Z,96050.97
2022-12-04T02:53:48.641Z,96039.44
2022-12-04T02:56:22.647Z,96032.97
2022-12-04T02:58:59.197Z,96022.72
2022-12-04T03:01:40.706Z,96033.75
2022-12-04T03:04:28.318Z,96041.38
2022-12-04T03:07:03.255Z,96027.56
2022-12-04T03:09:45.376Z,96023.03
2022-12-04T03:12:40.235Z,96020.75
2022-12-04T03:15:17.402Z,96024.66
2022-12-04T03:18:09.489Z,96013.91
2022-12-04T03:20:38.810Z,96020.59
2022-12-04T03:23:39.685Z,96021.41
2022-12-04T03:26:28.738Z,96022.38
2022-12-04T03:29:15.827Z,96027.91
2022-12-04T03:32:14.307Z,96020.06
2022-12-04T03:35:07.762Z,96022.06
2022-12-04T03:37:54.361Z,96016.69
2022-12-04T03:40:48.775Z,96025.63
2022-12-04T03:43:37.737Z,96026.59
2022-12-04T03:46:25.017Z,96029.81
2022-12-04T03:49:07.292Z,96026.63
2022-12-04T03:51:43.692Z,96044.50
2022-12-04T03:54:21.692Z,96036.34
2022-12-04T03:56:56.291Z,96038.31
2022-12-04T03:59:30.354Z,96037.47
2022-12-04T04:02:00.508Z,96034.84
2022-12-04T04:04:39.473Z,96038.94
2022-12-04T04:07:33.553Z,96038.44
2022-12-04T04:10:10.940Z,96025.25
2022-12-04T04:12:44.226Z,96014.19
2022-12-04T04:15:34.942Z,96011.91
2022-12-04T04:18:20.801Z,96015.47
2022-12-04T04:21:15.834Z,96007.34
2022-12-04T04:24:08.584Z,96007.00
2022-12-04T04:26:42.405Z,96007.00
2022-12-04T04:29:12.413Z,95994.50
2022-12-04T04:31:50.366Z,96001.13
2022-12-04T04:34:55.311Z,96005.03
2022-12-04T04:37:47.888Z,96007.34
2022-12-04T04:40:37.265Z,96006.31
2022-12-04T04:43:11.031Z,96000.97
2022-12-04T04:45:47.951Z,95995.00
2022-12-04T04:48:23.736Z,96001.81
2022-12-04T04:50:51.025Z,95998.88
2022-12-04T04:53:26.940Z,96000.16
2022-12-04T04:55:54.204Z,96001.31
2022-12-04T04:58:22.002Z,95997.25
2022-12-04T05:01:04.244Z,96004.41
2022-12-04T05:03:32.048Z,96007.66
2022-12-04T05:05:59.345Z,96005.38
2022-12-04T05:08:26.423Z,96007.81
2022-12-04T05:10:54.012Z,96010.25
2022-12-04T05:13:21.959Z,96006.69
2022-12-04T05:16:03.359Z,96000.19
2022-12-04T05:18:31.207Z,96003.09
2022-12-04T05:20:58.184Z,96014.19
2022-12-04T05:23:25.687Z,96007.66
2022-12-04T05:26:00.978Z,96017.91
2022-12-04T05:28:28.427Z,96010.63
2022-12-04T05:31:01.438Z,96011.59
2022-12-04T05:33:29.088Z,95997.63
2022-12-04T05:36:08.440Z,96004.41
2022-12-04T05:38:36.078Z,96004.09
2022-12-04T05:41:05.677Z,96005.06
2022-12-04T05:43:33.151Z,96000.50
2022-12-04T05:46:08.141Z,95993.31
2022-12-04T05:48:35.976Z,95997.91
2022-12-04T05:51:08.177Z,95994.03
2022-12-04T05:53:35.435Z,96001.69
2022-12-04T05:56:04.320Z,96008.03
2022-12-04T05:58:31.671Z,96002.00
2022-12-04T06:00:58.467Z,96012.53
2022-12-04T06:03:25.341Z,96001.47
2022-12-04T06:05:52.273Z,96017.44
2022-12-04T06:08:19.182Z,96013.50
2022-12-04T06:10:46.049Z,96008.94
2022-12-04T06:13:12.972Z,96017.09
2022-12-04T06:15:40.572Z,96007.66
2022-12-04T06:18:07.749Z,95998.22
2022-12-04T06:20:35.031Z,96007.34
2022-12-04T06:23:02.039Z,96014.66
2022-12-04T06:25:28.979Z,96010.56
2022-12-04T06:27:55.989Z,96007.59
2022-12-04T06:30:22.951Z,96001.75
2022-12-04T06:32:49.893Z,95998.81
2022-12-04T06:35:16.866Z,95998.13
2022-12-04T06:37:43.681Z,96003.84
2022-12-04T06:40:11.037Z,96004.63
2022-12-04T06:42:37.866Z,96002.66
2022-12-04T06:45:05.460Z,95999.06
2022-12-04T06:47:32.342Z,96008.22
2022-12-04T06:49:59.353Z,96000.13
2022-12-04T06:52:26.267Z,95999.44
2022-12-04T06:54:53.196Z,95980.22
2022-12-04T06:57:20.014Z,96002.34
2022-12-04T06:59:46.789Z,96000.69
2022-12-04T07:02:13.760Z,95998.75
2022-12-04T07:04:40.693Z,96001.97
2022-12-04T07:07:10.089Z,96004.09
2022-12-04T07:09:37.271Z,96002.91
2022-12-04T07:12:04.444Z,96002.59
2022-12-04T07:14:32.194Z,96008.13
2022-12-04T07:16:59.042Z,96009.78
2022-12-04T07:19:25.933Z,96010.72
2022-12-04T07:21:52.724Z,96028.63
2022-12-04T07:24:19.609Z,96039.44
2022-12-04T07:26:46.538Z,96036.47
2022-12-04T07:29:13.614Z,96033.19
2022-12-04T07:31:40.762Z,96027.09
2022-12-04T07:34:07.913Z,96031.75
2022-12-04T07:36:34.749Z,96033.19
2022-12-04T07:39:01.627Z,96009.28
2022-12-04T07:41:28.435Z,96008.94
2022-12-04T07:43:55.339Z,95996.56
2022-12-04T07:46:25.758Z,95997.03
2022-12-04T07:48:55.280Z,95982.19
2022-12-04T07:51:26.063Z,95969.94
2022-12-04T07:53:54.808Z,95973.47
2022-12-04T07:56:21.893Z,95991.69
2022-12-04T07:58:48.799Z,96001.94
2022-12-04T08:01:23.016Z,96023.06
2022-12-04T08:03:53.013Z,96032.81
2022-12-04T08:06:22.347Z,96026.63
2022-12-04T08:08:49.967Z,96018.47
2022-12-04T08:11:22.376Z,96016.53
2022-12-04T08:13:57.606Z,96000.19
2022-12-04T08:16:25.829Z,96009.00
2022-12-04T08:18:54.127Z,96006.09
2022-12-04T08:21:24.954Z,96012.22
2022-12-04T08:23:54.316Z,96015.16
2022-12-04T08:26:24.264Z,96010.50
2022-12-04T08:28:54.470Z,96005.28
2022-12-04T08:31:27.884Z,96005.66
2022-12-04T08:33:57.378Z,96013.13
2022-12-04T08:36:24.840Z,96015.03
2022-12-04T08:38:52.272Z,96016.97
2022-12-04T08:41:23.902Z,96012.59
2022-12-04T08:43:54.447Z,96002.44
2022-12-04T08:46:22.503Z,96005.88
2022-12-04T08:48:49.526Z,96004.56
2022-12-04T08:51:29.674Z,96013.28
2022-12-04T08:53:59.494Z,96014.56
2022-12-04T08:56:27.841Z,96015.94
2022-12-04T08:58:56.639Z,96019.66
2022-12-04T09:01:24.069Z,96013.91
2022-12-04T09:03:51.059Z,96021.72
2022-12-04T09:06:18.332Z,96019.66
2022-12-04T09:08:45.277Z,96005.19
2022-12-04T09:11:21.860Z,96020.13
2022-12-04T09:13:48.944Z,96017.59
2022-12-04T09:16:22.553Z,96005.97
2022-12-04T09:18:49.723Z,96013.34
2022-12-04T09:21:20.199Z,96029.63
2022-12-04T09:23:47.380Z,96028.28
2022-12-04T09:26:22.019Z,96042.47
2022-12-04T09:28:50.233Z,96022.22
2022-12-04T09:31:19.014Z,96010.50
2022-12-04T09:33:46.347Z,96000.97
2022-12-04T09:36:16.301Z,96002.72
2022-12-04T09:38:49.977Z,95993.81
2022-12-04T09:42:00.136Z,95981.03
2022-12-04T09:44:41.059Z,95964.19
2022-12-04T09:47:34.386Z,95963.47
2022-12-04T09:50:32.840Z,95962.97
2022-12-04T09:53:09.062Z,95958.44
2022-12-04T09:55:49.309Z,95954.16
2022-12-04T09:58:40.028Z,95964.84
2022-12-04T10:01:27.546Z,95972.66
2022-12-04T10:03:59.877Z,95967.53
2022-12-04T10:06:53.688Z,95968.59
2022-12-04T10:09:31.797Z,95959.16
2022-12-04T10:12:20.237Z,95954.84
2022-12-04T10:15:23.500Z,95960.34
2022-12-04T10:18:39.311Z,95974.63
2022-12-04T10:21:18.275Z,95978.28
2022-12-04T10:24:09.512Z,95970.38
2022-12-04T10:26:47.083Z,95960.88
2022-12-04T10:29:22.961Z,95950.22
2022-12-04T10:31:54.862Z,95957.28
2022-12-04T10:34:29.541Z,95958.47
2022-12-04T10:37:06.805Z,95941.44
2022-12-04T10:39:43.088Z,95933.53
2022-12-04T10:42:21.538Z,95934.06
2022-12-04T10:44:48.360Z,95919.22
2022-12-04T10:47:15.427Z,95913.00
2022-12-04T10:49:42.840Z,95923.00
2022-12-04T10:52:13.597Z,95923.06
2022-12-04T10:54:48.740Z,95918.59
2022-12-04T10:57:16.392Z,95901.22
2022-12-04T10:59:56.198Z,95901.13
2022-12-04T11:02:27.986Z,95896.81
2022-12-04T11:05:01.775Z,95883.38
2022-12-04T11:07:34.382Z,95893.00
2022-12-04T11:10:22.928Z,95885.72
2022-12-04T11:13:15.981Z,95882.94
2022-12-04T11:15:52.552Z,95889.03
2022-12-04T11:18:24.463Z,95911.91
2022-12-04T11:20:56.484Z,95904.91
2022-12-04T11:23:24.349Z,95907.50
2022-12-04T11:25:54.714Z,95907.63
2022-12-04T11:28:41.097Z,95893.22
2022-12-04T11:31:11.168Z,95886.38
2022-12-04T11:33:43.671Z,95890.44
2022-12-04T11:36:30.820Z,95878.44
2022-12-04T11:39:13.487Z,95887.09
2022-12-04T11:41:40.424Z,95886.03
2022-12-04T11:44:22.390Z,95886.53
2022-12-04T11:46:59.093Z,95896.97
2022-12-04T11:49:27.589Z,95895.59
2022-12-04T11:52:38.855Z,95881.94
2022-12-04T11:55:29.118Z,95883.56
2022-12-04T11:58:11.191Z,95888.59
2022-12-04T12:00:57.417Z,95894.91
2022-12-04T12:03:42.729Z,95884.00
2022-12-04T12:06:30.634Z,95883.50
2022-12-04T12:09:14.251Z,95878.28
2022-12-04T12:12:12.342Z,95878.78
2022-12-04T12:15:04.076Z,95863.06
2022-12-04T12:17:47.835Z,95853.72
2022-12-04T12:20:38.259Z,95870.91
2022-12-04T12:23:48.803Z,95867.31
2022-12-04T12:26:18.318Z,95862.97
2022-12-04T12:29:52.456Z,95859.75
2022-12-04T12:32:43.455Z,95854.19
2022-12-04T12:35:36.373Z,95828.28
2022-12-04T12:38:11.121Z,95834.13
2022-12-04T12:40:43.398Z,95834.81
2022-12-04T12:43:16.697Z,95831.66
2022-12-04T12:46:01.282Z,95827.31
2022-12-04T12:48:58.591Z,95828.78
2022-12-04T12:51:42.256Z,95838.50
2022-12-04T12:54:27.226Z,95835.88
2022-12-04T12:57:03.174Z,95835.72
2022-12-04T12:59:32.441Z,95832.03
2022-12-04T13:02:14.140Z,95840.50
2022-12-04T13:04:44.603Z,95831.31
2022-12-04T13:07:58.086Z,95839.59
2022-12-04T13:10:43.883Z,95848.41
2022-12-04T13:13:31.050Z,95844.09
2022-12-04T13:16:05.350Z,95836.03
2022-12-04T13:18:57.036Z,95842.22
2022-12-04T13:21:42.447Z,95847.56
2022-12-04T13:24:36.220Z,95843.59
2022-12-04T13:27:34.752Z,95832.44
2022-12-04T13:30:14.907Z,95825.84
2022-12-04T13:33:00.059Z,95808.41
2022-12-04T13:35:50.427Z,95814.09
2022-12-04T13:39:06.890Z,95801.94
2022-12-04T13:41:39.141Z,95810.56
2022-12-04T13:44:24.311Z,95807.06
2022-12-04T13:47:02.610Z,95794.94
2022-12-04T13:49:32.554Z,95796.44
2022-12-04T13:52:02.546Z,95798.94
2022-12-04T13:54:36.523Z,95796.22
2022-12-04T13:57:15.380Z,95809.47
2022-12-04T13:59:43.484Z,95804.91
2022-12-04T14:02:55.574Z,95813.19
2022-12-04T14:05:32.811Z,95816.44
2022-12-04T14:08:24.341Z,95827.13
2022-12-04T14:11:07.355Z,95831.00
2022-12-04T14:13:46.126Z,95827.03
2022-12-04T14:16:35.885Z,95829.56
2022-12-04T14:19:04.304Z,95825.69
2022-12-04T14:21:45.636Z,95821.81
2022-12-04T14:24:35.995Z,95829.56
2022-12-04T14:27:42.809Z,95827.22
2022-12-04T14:30:29.653Z,95824.50
2022-12-04T14:33:20.933Z,95819.28
2022-12-04T14:36:11.491Z,95818.69
2022-12-04T14:38:39.352Z,95816.34
2022-12-04T14:41:06.481Z,95807.78
2022-12-04T14:43:41.431Z,95814.69
2022-12-04T14:46:35.078Z,95824.13
2022-12-04T14:49:35.759Z,95824.50
2022-12-04T14:52:25.608Z,95813.00
2022-12-04T14:55:07.587Z,95811.91
2022-12-04T14:58:25.004Z,95816.44
2022-12-04T15:00:54.994Z,95806.34
2022-12-04T15:03:22.771Z,95810.31
2022-12-04T15:05:51.271Z,95817.94
2022-12-04T15:08:20.270Z,95815.16
2022-12-04T15:11:09.686Z,95823.25
2022-12-04T15:13:38.616Z,95819.03
2022-12-04T15:16:19.335Z,95825.50
2022-12-04T15:19:00.650Z,95815.31
2022-12-04T15:21:45.901Z,95818.56
2022-12-04T15:24:20.172Z,95813.34
2022-12-04T15:26:48.532Z,95812.38
2022-12-04T15:29:24.047Z,95815.59
2022-12-04T15:31:56.884Z,95818.91
2022-12-04T15:34:45.626Z,95819.38
2022-12-04T15:37:28.996Z,95829.56
2022-12-04T15:39:57.530Z,95830.28
2022-12-04T15:42:24.576Z,95835.13
2022-12-04T15:45:01.935Z,95847.19
2022-12-04T15:47:32.892Z,95856.25
2022-12-04T15:50:15.830Z,95859.94
2022-12-04T15:53:05.414Z,95872.00
2022-12-04T15:55:49.885Z,95870.38
2022-12-04T15:58:39.161Z,95870.00
2022-12-04T16:01:09.722Z,95877.13
2022-12-04T16:03:42.667Z,95880.25
2022-12-04T16:06:29.175Z,95892.13
2022-12-04T16:09:01.379Z,95885.28
2022-12-04T16:11:36.626Z,95879.81
2022-12-04T16:14:08.092Z,95882.06
2022-12-04T16:16:37.508Z,95881.44
2022-12-04T16:19:27.556Z,95880.25
2022-12-04T16:21:57.883Z,95881.41
2022-12-04T16:24:25.167Z,95880.25
2022-12-04T16:26:55.260Z,95886.81
2022-12-04T16:29:23.558Z,95891.31
2022-12-04T16:31:51.095Z,95879.25
2022-12-04T16:34:18.264Z,95894.28
2022-12-04T16:36:45.248Z,95894.72
2022-12-04T16:39:12.068Z,95885.22
2022-12-04T16:41:40.132Z,95889.63
2022-12-04T16:44:14.925Z,95892.16
2022-12-04T16:46:43.084Z,95899.84
2022-12-04T16:49:12.924Z,95895.88
2022-12-04T16:51:46.114Z,95893.16
2022-12-04T16:54:14.037Z,95897.03
2022-12-04T16:56:41.717Z,95893.91
2022-12-04T16:59:11.956Z,95887.91
2022-12-04T17:01:47.500Z,95896.69
2022-12-04T17:04:15.565Z,95896.06
2022-12-04T17:06:42.655Z,95895.63
2022-12-04T17:09:09.804Z,95896.91
2022-12-04T17:11:36.706Z,95902.31
2022-12-04T17:14:07.051Z,95900.06
2022-12-04T17:16:43.310Z,95907.38
2022-12-04T17:19:11.596Z,95909.97
2022-12-04T17:21:40.252Z,95919.00
2022-12-04T17:24:08.260Z,95917.16
2022-12-04T17:26:35.143Z,95924.00
2022-12-04T17:29:01.951Z,95923.94
2022-12-04T17:31:28.896Z,95917.38
2022-12-04T17:33:56.903Z,95916.72
2022-12-04T17:36:27.513Z,95919.06
2022-12-04T17:38:57.766Z,95918.91
2022-12-04T17:41:25.420Z,95916.47
2022-12-04T17:43:52.308Z,95910.97
2022-12-04T17:46:22.809Z,95929.66
2022-12-04T17:48:50.019Z,95924.00
2022-12-04T17:51:22.831Z,95924.34
2022-12-04T17:53:49.859Z,95915.75
2022-12-04T17:56:22.495Z,95926.56
2022-12-04T17:58:50.574Z,95923.41
2022-12-04T18:01:24.697Z,95914.56
2022-12-04T18:04:01.959Z,95922.94
2022-12-04T18:06:39.023Z,95926.56
2022-12-04T18:09:08.882Z,95922.94
2022-12-04T18:11:38.326Z,95925.84
2022-12-04T18:14:12.330Z,95928.25
2022-12-04T18:16:44.501Z,95927.69
2022-12-04T18:19:12.709Z,95924.56
2022-12-04T18:21:40.350Z,95920.75
2022-12-04T18:24:07.791Z,95931.75
2022-12-04T18:26:45.934Z,95938.00
2022-12-04T18:29:18.050Z,95932.78
2022-12-04T18:31:46.262Z,95927.81
2022-12-04T18:34:13.854Z,95927.59
2022-12-04T18:36:42.571Z,95916.00
2022-12-04T18:39:15.270Z,95929.06
2022-12-04T18:41:42.617Z,95932.69
2022-12-04T18:44:10.688Z,95932.00
2022-12-04T18:46:38.593Z,95927.06
2022-12-04T18:49:07.012Z,95936.97
2022-12-04T18:51:40.307Z,95938.81
2022-12-04T18:54:22.819Z,95940.28
2022-12-04T18:56:50.643Z,95946.69
2022-12-04T18:59:21.288Z,95954.19
2022-12-04T19:01:50.375Z,95949.53
2022-12-04T19:04:19.323Z,95954.78
2022-12-04T19:06:53.635Z,95961.44
2022-12-04T19:09:47.274Z,95950.75
2022-12-04T19:12:12.910Z,95952.38
2022-12-04T19:14:40.048Z,95940.78
2022-12-04T19:17:07.386Z,95936.97
2022-12-04T19:19:34.322Z,95935.22
2022-12-04T19:22:02.039Z,95939.88
2022-12-04T19:24:28.880Z,95950.44
2022-12-04T19:26:56.761Z,95955.88
2022-12-04T19:29:23.789Z,95959.66
2022-12-04T19:31:54.680Z,95956.03
2022-12-04T19:34:24.628Z,95969.38
2022-12-04T19:36:53.998Z,95969.59
2022-12-04T19:39:20.835Z,95972.75
2022-12-04T19:41:47.688Z,95980.22
2022-12-04T19:44:46.704Z,95981.81
2022-12-04T19:47:01.633Z,95991.06
2022-12-04T19:49:29.559Z,95999.44
2022-12-04T19:51:56.431Z,95999.34
2022-12-04T19:54:23.774Z,95996.72
2022-12-04T19:56:52.485Z,96000.03
2022-12-04T19:59:20.418Z,96014.53
2022-12-04T20:01:47.574Z,96019.28
2022-12-04T20:04:14.523Z,96016.31
2022-12-04T20:06:44.539Z,96018.22
2022-12-04T20:09:20.174Z,96024.41
2022-12-04T20:11:47.602Z,96027.94
2022-12-04T20:14:14.495Z,96036.22
2022-12-04T20:16:42.008Z,96034.13
2022-12-04T20:19:14.941Z,96036.84
2022-12-04T20:21:42.724Z,96038.69
2022-12-04T20:24:14.618Z,96037.16
2022-12-04T20:26:43.902Z,96041.56
2022-12-04T20:29:14.647Z,96042.31
2022-12-04T20:31:45.096Z,96052.91
2022-12-04T20:34:16.306Z,96057.44
2022-12-04T20:36:45.458Z,96059.09
2022-12-04T20:39:13.971Z,96053.53
2022-12-04T20:41:41.336Z,96059.63
2022-12-04T20:44:13.243Z,96059.06
2022-12-04T20:46:40.646Z,96057.38
2022-12-04T20:49:17.223Z,96070.28
2022-12-04T20:51:47.976Z,96056.81
2022-12-04T20:54:18.568Z,96063.59
2022-12-04T20:56:48.495Z,96075.16
2022-12-04T20:59:16.426Z,96071.09
2022-12-04T21:01:43.556Z,96070.47
2022-12-04T21:04:12.729Z,96075.03
2022-12-04T21:06:40.965Z,96072.06
2022-12-04T21:09:18.255Z,96081.50
2022-12-04T21:11:49.135Z,96062.63
2022-12-04T21:14:41.996Z,96076.75
2022-12-04T21:17:14.368Z,96074.34
2022-12-04T21:19:41.182Z,96072.06
2022-12-04T21:22:08.718Z,96081.81
2022-12-04T21:24:38.454Z,96086.72
2022-12-04T21:27:13.290Z,96085.69
2022-12-04T21:29:43.559Z,96089.19
2022-12-04T21:32:10.387Z,96089.00
2022-12-04T21:34:37.175Z,96088.81
2022-12-04T21:37:04.063Z,96094.16
2022-12-04T21:39:30.913Z,96094.19
2022-12-04T21:42:16.232Z,96090.44
2022-12-04T21:44:43.064Z,96096.00
2022-12-04T21:47:09.980Z,96074.97
2022-12-04T21:49:37.005Z,96087.84
2022-12-04T21:52:03.828Z,96077.56
2022-12-04T21:54:30.922Z,96083.16
2022-12-04T21:56:58.612Z,96090.00
2022-12-04T21:59:26.285Z,96087.38
2022-12-04T22:01:54.038Z,96090.28
2022-12-04T22:04:21.782Z,96091.25
2022-12-04T22:06:48.983Z,96100.53
2022-12-04T22:09:15.805Z,96100.53
2022-12-04T22:11:43.848Z,96099.38
2022-12-04T22:14:11.734Z,96102.63
2022-12-04T22:16:42.907Z,96099.09
2022-12-04T22:19:11.973Z,96109.00
2022-12-04T22:21:39.693Z,96109.81
2022-12-04T22:24:07.452Z,96107.88
2022-12-04T22:26:34.413Z,96116.97
2022-12-04T22:29:01.967Z,96124.13
2022-12-04T22:31:31.437Z,96119.25
2022-12-04T22:34:00.611Z,96129.69
2022-12-04T22:36:32.981Z,96115.84
2022-12-04T22:39:15.209Z,96132.59
2022-12-04T22:41:42.002Z,96118.94
2022-12-04T22:44:08.833Z,96123.63
2022-12-04T22:46:35.728Z,96129.66
2022-12-04T22:49:02.611Z,96118.28
2022-12-04T22:51:30.011Z,96121.53
2022-12-04T22:53:58.255Z,96122.53
2022-12-04T22:56:30.876Z,96137.13
2022-12-04T22:58:58.917Z,96139.09
2022-12-04T23:01:32.499Z,96153.56
2022-12-04T23:04:01.004Z,96154.69
2022-12-04T23:06:30.694Z,96158.28
2022-12-04T23:09:06.377Z,96161.84
2022-12-04T23:11:33.978Z,96169.91
2022-12-04T23:14:04.938Z,96171.84
2022-12-04T23:16:35.216Z,96184.84
2022-12-04T23:19:02.683Z,96182.31
2022-12-04T23:21:29.610Z,96159.59
2022-12-04T23:23:57.201Z,96170.78
2022-12-04T23:26:30.094Z,96159.88
2022-12-04T23:28:57.773Z,96170.91
2022-12-04T23:31:25.334Z,96173.53
2022-12-04T23:33:52.268Z,96177.75
2022-12-04T23:36:19.149Z,96178.59
2022-12-04T23:38:46.251Z,96176.63
2022-12-04T23:41:22.832Z,96174.69
2022-12-04T23:43:50.974Z,96173.78
2022-12-04T23:46:23.992Z,96181.94
2022-12-04T23:48:50.846Z,96174.19
2022-12-04T23:51:19.341Z,96174.69
2022-12-04T23:53:47.040Z,96176.97
2022-12-04T23:56:19.158Z,96172.88
2022-12-04T23:58:49.036Z,96194.50
